Main page
METAR-TAF:

METAR-TAF

Airports :

Tiree Airport

Tiree, Scotland

latitude: 56-30N, longitude: 006-53W, elevation: 12 m

Current weather observation

The report was made 31 minutes ago, at 20:50 UTC
Wind 5 kt from the West
Temperature 8°C
Humidity 87%
Pressure 996 hPa
Visibility 10 km or more

METAR: EGPU 202050Z AUTO 27005KT 9999 NCD 08/06 Q0996

Time: 22:21 (21:21 UTC)

Forecast

The report was made 7 hours and 29 minutes ago, at 13:52 UTC
Forecast valid from 20 at 15 UTC to 20 at 18 UTC
Wind 15 kt from the West/Southwest
Visibility 10 km or more
Scattered clouds at a height of 2500 ft

TAF: EGPU 201352Z 2015/2018 24015KT 9999 SCT025

Weather observations and forecasts of more than 4000 airports (METAR and TAF reports).

The available stations are represented by yellow and red dots on the map.

Hover mouse over dot to see the name of the station.

Then click to see weather observations and forecasts.

To change the map : click on the green buttons with a black cross to zoom in, on the green button with a dash to zoom out, or on the green arrows for adjacent maps.


METAR-TAF: